createdAt,value
2019-03-23T00:01:00.280Z,99.22
2019-03-23T00:03:35.434Z,99.67
2019-03-23T00:06:09.496Z,99.62
2019-03-23T00:08:41.463Z,100.00
2019-03-23T00:11:17.213Z,100.00
2019-03-23T00:13:51.534Z,100.00
2019-03-23T00:16:25.789Z,100.00
2019-03-23T00:18:57.915Z,100.00
2019-03-23T00:21:29.324Z,100.00
2019-03-23T00:24:00.942Z,100.00
2019-03-23T00:26:38.182Z,100.00
2019-03-23T00:29:15.124Z,100.00
2019-03-23T00:31:48.727Z,100.00
2019-03-23T00:34:20.418Z,100.00
2019-03-23T00:36:51.746Z,100.00
2019-03-23T00:39:27.800Z,100.00
2019-03-23T00:41:59.654Z,100.00
2019-03-23T00:44:33.097Z,100.00
2019-03-23T00:47:04.424Z,100.00
2019-03-23T00:49:40.436Z,100.00
2019-03-23T00:52:15.199Z,100.00
2019-03-23T00:54:51.174Z,100.00
2019-03-23T00:57:22.473Z,100.00
2019-03-23T00:59:53.848Z,98.32
2019-03-23T01:02:25.717Z,96.97
2019-03-23T01:04:57.055Z,96.22
2019-03-23T01:07:28.363Z,95.34
2019-03-23T01:10:00.327Z,94.38
2019-03-23T01:12:33.050Z,94.42
2019-03-23T01:15:04.767Z,92.97
2019-03-23T01:17:37.582Z,92.16
2019-03-23T01:20:09.646Z,91.69
2019-03-23T01:22:41.322Z,91.87
2019-03-23T01:25:13.001Z,91.59
2019-03-23T01:27:44.567Z,91.05
2019-03-23T01:30:16.195Z,91.51
2019-03-23T01:32:47.998Z,90.83
2019-03-23T01:35:21.953Z,90.17
2019-03-23T01:37:53.432Z,90.76
2019-03-23T01:40:25.251Z,90.70
2019-03-23T01:42:57.993Z,89.58
2019-03-23T01:45:29.324Z,89.81
2019-03-23T01:48:01.030Z,90.57
2019-03-23T01:50:33.440Z,89.91
2019-03-23T01:53:04.851Z,90.06
2019-03-23T01:55:36.505Z,89.83
2019-03-23T01:58:07.841Z,89.72
2019-03-23T02:00:39.191Z,88.64
2019-03-23T02:03:11.504Z,87.76
2019-03-23T02:05:42.967Z,86.46
2019-03-23T02:08:14.317Z,86.64
2019-03-23T02:10:45.687Z,86.38
2019-03-23T02:13:20.151Z,85.76
2019-03-23T02:15:51.510Z,85.90
2019-03-23T02:18:22.874Z,86.12
2019-03-23T02:20:55.215Z,86.10
2019-03-23T02:23:27.629Z,85.50
2019-03-23T02:25:59.040Z,84.83
2019-03-23T02:28:30.846Z,84.50
2019-03-23T02:31:03.718Z,84.34
2019-03-23T02:33:35.099Z,85.55
2019-03-23T02:36:09.642Z,85.47
2019-03-23T02:38:41.162Z,86.58
2019-03-23T02:41:12.973Z,87.07
2019-03-23T02:43:44.585Z,87.66
2019-03-23T02:46:15.958Z,88.54
2019-03-23T02:48:48.722Z,89.79
2019-03-23T02:51:22.109Z,90.10
2019-03-23T02:53:53.501Z,89.65
2019-03-23T02:56:24.885Z,90.04
2019-03-23T02:58:56.605Z,91.37
2019-03-23T03:01:27.986Z,91.71
2019-03-23T03:03:59.626Z,92.56
2019-03-23T03:06:30.918Z,92.54
2019-03-23T03:09:02.256Z,93.25
2019-03-23T03:11:34.758Z,94.18
2019-03-23T03:14:06.576Z,95.09
2019-03-23T03:16:37.932Z,94.68
2019-03-23T03:19:09.416Z,94.68
2019-03-23T03:21:41.174Z,95.49
2019-03-23T03:24:12.566Z,95.72
2019-03-23T03:26:43.870Z,96.00
2019-03-23T03:29:15.212Z,96.63
2019-03-23T03:31:46.940Z,96.59
2019-03-23T03:34:18.326Z,96.91
2019-03-23T03:36:49.749Z,97.77
2019-03-23T03:39:21.402Z,97.39
2019-03-23T03:41:52.731Z,96.66
2019-03-23T03:44:24.098Z,96.87
2019-03-23T03:46:56.135Z,96.57
2019-03-23T03:49:27.633Z,97.55
2019-03-23T03:51:59.041Z,98.62
2019-03-23T03:54:30.705Z,98.12
2019-03-23T03:57:02.090Z,97.92
2019-03-23T03:59:33.505Z,97.53
2019-03-23T04:02:05.222Z,97.82
2019-03-23T04:04:36.517Z,98.55
2019-03-23T04:07:07.866Z,98.79
2019-03-23T04:09:40.492Z,98.87
2019-03-23T04:12:12.161Z,99.08
2019-03-23T04:14:43.559Z,100.00
2019-03-23T04:17:16.521Z,100.00
2019-03-23T04:19:47.869Z,100.00
2019-03-23T04:22:19.296Z,100.00
2019-03-23T04:24:51.058Z,100.00
2019-03-23T04:27:22.592Z,100.00
2019-03-23T04:29:53.889Z,100.00
2019-03-23T04:32:25.303Z,100.00
2019-03-23T04:34:56.877Z,100.00
2019-03-23T04:37:29.457Z,100.00
2019-03-23T04:40:01.254Z,100.00
2019-03-23T04:42:32.716Z,100.00
2019-03-23T04:45:04.075Z,100.00
2019-03-23T04:47:35.451Z,100.00
2019-03-23T04:50:07.896Z,100.00
2019-03-23T04:52:39.286Z,100.00
2019-03-23T04:55:11.643Z,100.00
2019-03-23T04:57:43.516Z,100.00
2019-03-23T05:00:15.304Z,100.00
2019-03-23T05:02:46.708Z,100.00
2019-03-23T05:05:18.402Z,100.00
2019-03-23T05:07:49.729Z,100.00
2019-03-23T05:10:21.074Z,100.00
2019-03-23T05:12:52.953Z,100.00
2019-03-23T05:15:26.178Z,100.00
2019-03-23T05:17:58.461Z,100.00
2019-03-23T05:20:31.737Z,100.00
2019-03-23T05:23:06.135Z,100.00
2019-03-23T05:25:37.862Z,100.00
2019-03-23T05:28:09.880Z,100.00
2019-03-23T05:30:41.309Z,100.00
2019-03-23T05:33:12.720Z,100.00
2019-03-23T05:35:44.058Z,100.00
2019-03-23T05:38:15.405Z,100.00
2019-03-23T05:40:46.726Z,100.00
2019-03-23T05:43:18.532Z,100.00
2019-03-23T05:45:49.858Z,100.00
2019-03-23T05:48:21.372Z,100.00
2019-03-23T05:50:54.945Z,100.00
2019-03-23T05:53:26.844Z,100.00
2019-03-23T05:55:58.240Z,100.00
2019-03-23T05:58:29.664Z,100.00
2019-03-23T06:01:01.209Z,100.00
2019-03-23T06:03:32.783Z,100.00
2019-03-23T06:06:04.104Z,100.00
2019-03-23T06:08:35.832Z,100.00
2019-03-23T06:11:07.443Z,100.00
2019-03-23T06:13:38.836Z,100.00
2019-03-23T06:16:10.838Z,100.00
2019-03-23T06:18:42.223Z,100.00
2019-03-23T06:21:14.797Z,100.00
2019-03-23T06:23:46.643Z,100.00
2019-03-23T06:26:18.031Z,100.00
2019-03-23T06:28:49.517Z,100.00
2019-03-23T06:31:20.899Z,100.00
2019-03-23T06:33:52.834Z,100.00
2019-03-23T06:36:25.950Z,100.00
2019-03-23T06:39:05.027Z,100.00
2019-03-23T06:41:30.340Z,100.00
2019-03-23T06:44:01.699Z,100.00
2019-03-23T06:46:36.203Z,100.00
2019-03-23T06:49:08.026Z,100.00
2019-03-23T06:51:39.363Z,100.00
2019-03-23T06:54:13.647Z,100.00
2019-03-23T06:56:47.750Z,98.34
2019-03-23T06:59:21.382Z,98.42
2019-03-23T07:01:55.332Z,98.84
2019-03-23T07:04:26.960Z,97.83
2019-03-23T07:07:00.300Z,98.59
2019-03-23T07:09:32.108Z,97.35
2019-03-23T07:12:05.291Z,92.62
2019-03-23T07:14:36.710Z,94.42
2019-03-23T07:17:08.483Z,92.96
2019-03-23T07:19:40.405Z,87.19
2019-03-23T07:22:12.112Z,79.54
2019-03-23T07:24:43.516Z,75.85
2019-03-23T07:27:16.502Z,78.36
2019-03-23T07:29:48.549Z,78.09
2019-03-23T07:32:19.920Z,72.79
2019-03-23T07:34:51.574Z,72.27
2019-03-23T07:37:22.866Z,74.12
2019-03-23T07:40:07.094Z,71.74
2019-03-23T07:42:38.438Z,71.00
2019-03-23T07:45:10.210Z,70.78
2019-03-23T07:47:41.931Z,71.46
2019-03-23T07:50:13.509Z,69.70
2019-03-23T07:52:45.509Z,66.94
2019-03-23T07:55:17.065Z,68.29
2019-03-23T07:57:51.367Z,68.02
2019-03-23T08:00:23.591Z,65.79
2019-03-23T08:02:54.952Z,65.59
2019-03-23T08:05:32.518Z,64.50
2019-03-23T08:08:04.311Z,64.97
2019-03-23T08:10:37.298Z,62.08
2019-03-23T08:13:13.525Z,61.85
2019-03-23T08:15:44.928Z,62.49
2019-03-23T08:18:16.754Z,61.79
2019-03-23T08:20:48.146Z,60.01
2019-03-23T08:23:20.462Z,61.44
2019-03-23T08:26:01.522Z,60.24
2019-03-23T08:28:52.333Z,61.73
2019-03-23T08:31:26.867Z,61.24
2019-03-23T08:33:58.358Z,60.76
2019-03-23T08:36:29.648Z,61.37
2019-03-23T08:39:01.128Z,59.32
2019-03-23T08:41:34.350Z,60.30
2019-03-23T08:44:05.718Z,59.80
2019-03-23T08:46:37.142Z,59.13
2019-03-23T08:49:08.451Z,57.12
2019-03-23T08:51:39.816Z,58.36
2019-03-23T08:54:14.952Z,57.14
2019-03-23T08:56:50.908Z,56.10
2019-03-23T08:59:22.407Z,57.27
2019-03-23T09:01:54.027Z,56.91
2019-03-23T09:04:25.399Z,58.83
2019-03-23T09:06:56.708Z,56.21
2019-03-23T09:09:28.846Z,56.18
2019-03-23T09:12:01.460Z,56.83
2019-03-23T09:14:34.304Z,54.28
2019-03-23T09:17:05.721Z,54.09
2019-03-23T09:19:40.973Z,52.75
2019-03-23T09:22:12.439Z,54.13
2019-03-23T09:24:43.748Z,54.16
2019-03-23T09:27:17.063Z,53.71
2019-03-23T09:29:48.405Z,51.60
2019-03-23T09:32:20.021Z,51.35
2019-03-23T09:35:00.452Z,51.13
2019-03-23T09:37:31.822Z,50.72
2019-03-23T09:40:11.075Z,52.40
2019-03-23T09:42:42.977Z,50.33
2019-03-23T09:45:18.194Z,50.66
2019-03-23T09:47:53.373Z,47.78
2019-03-23T09:50:28.471Z,49.91
2019-03-23T09:53:06.352Z,47.77
2019-03-23T09:55:37.955Z,47.48
2019-03-23T09:58:12.678Z,44.43
2019-03-23T10:00:44.704Z,46.64
2019-03-23T10:03:21.654Z,44.96
2019-03-23T10:05:56.012Z,45.02
2019-03-23T10:08:27.902Z,44.64
2019-03-23T10:10:59.355Z,43.97
2019-03-23T10:13:31.247Z,42.80
2019-03-23T10:16:07.765Z,42.76
2019-03-23T10:18:57.255Z,43.91
2019-03-23T10:21:28.533Z,42.60
2019-03-23T10:24:02.567Z,42.51
2019-03-23T10:26:34.716Z,40.83
2019-03-23T10:29:13.126Z,40.64
2019-03-23T10:31:52.277Z,41.71
2019-03-23T10:34:52.668Z,41.33
2019-03-23T10:38:06.863Z,39.73
2019-03-23T10:40:47.374Z,41.30
2019-03-23T10:43:18.892Z,39.83
2019-03-23T10:45:50.623Z,39.73
2019-03-23T10:48:24.819Z,40.02
2019-03-23T10:51:14.137Z,38.76
2019-03-23T10:53:51.570Z,38.03
2019-03-23T10:56:25.202Z,39.71
2019-03-23T10:58:57.332Z,39.69
2019-03-23T11:01:28.948Z,39.80
2019-03-23T11:04:09.152Z,40.17
2019-03-23T11:06:49.287Z,38.38
2019-03-23T11:09:30.272Z,38.82
2019-03-23T11:12:05.462Z,38.57
2019-03-23T11:14:40.569Z,38.96
2019-03-23T11:17:15.321Z,36.94
2019-03-23T11:19:47.000Z,38.19
2019-03-23T11:22:19.972Z,37.64
2019-03-23T11:24:52.286Z,37.42
2019-03-23T11:27:26.431Z,37.10
2019-03-23T11:30:00.011Z,37.42
2019-03-23T11:32:31.960Z,38.58
2019-03-23T11:35:04.426Z,37.53
2019-03-23T11:37:36.391Z,38.81
2019-03-23T11:40:07.971Z,37.38
2019-03-23T11:42:50.169Z,37.94
2019-03-23T11:45:21.287Z,38.08
2019-03-23T11:47:55.975Z,36.89
2019-03-23T11:50:37.701Z,38.03
2019-03-23T11:53:29.823Z,38.33
2019-03-23T11:56:05.302Z,37.29
2019-03-23T11:58:38.275Z,37.10
2019-03-23T12:01:15.097Z,36.94
2019-03-23T12:03:46.798Z,36.93
2019-03-23T12:06:27.387Z,37.10
2019-03-23T12:08:59.015Z,37.29
2019-03-23T12:11:32.529Z,37.93
2019-03-23T12:14:05.903Z,38.11
2019-03-23T12:16:43.325Z,39.87
2019-03-23T12:19:30.418Z,38.55
2019-03-23T12:22:02.074Z,39.02
2019-03-23T12:24:35.289Z,38.86
2019-03-23T12:27:06.631Z,37.77
2019-03-23T12:29:38.470Z,37.84
2019-03-23T12:32:11.461Z,37.76
2019-03-23T12:34:49.696Z,38.76
2019-03-23T12:37:21.098Z,39.73
2019-03-23T12:39:57.367Z,36.82
2019-03-23T12:42:28.710Z,37.98
2019-03-23T12:45:00.631Z,37.07
2019-03-23T12:47:40.477Z,37.42
2019-03-23T12:50:14.692Z,38.16
2019-03-23T12:52:46.408Z,39.53
2019-03-23T12:55:18.130Z,38.68
2019-03-23T12:57:49.519Z,39.11
2019-03-23T13:00:21.444Z,37.78
2019-03-23T13:02:55.790Z,39.24
2019-03-23T13:05:27.451Z,40.15
2019-03-23T13:07:59.114Z,39.42
2019-03-23T13:10:39.347Z,40.21
2019-03-23T13:13:17.128Z,39.99
2019-03-23T13:15:48.778Z,39.79
2019-03-23T13:18:27.182Z,40.33
2019-03-23T13:20:55.287Z,41.07
2019-03-23T13:23:29.166Z,40.56
2019-03-23T13:26:01.355Z,40.77
2019-03-23T13:28:36.270Z,41.69
2019-03-23T13:31:07.878Z,40.50
2019-03-23T13:33:46.370Z,40.59
2019-03-23T13:36:24.562Z,40.60
2019-03-23T13:38:57.711Z,40.37
2019-03-23T13:41:29.547Z,40.17
2019-03-23T13:44:01.072Z,40.30
2019-03-23T13:46:35.863Z,40.14
2019-03-23T13:49:08.870Z,40.40
2019-03-23T13:51:41.734Z,39.46
2019-03-23T13:54:25.366Z,40.33
2019-03-23T13:56:57.474Z,39.91
2019-03-23T13:59:35.804Z,38.96
2019-03-23T14:02:07.639Z,39.56
2019-03-23T14:04:39.230Z,38.48
2019-03-23T14:07:15.162Z,39.03
2019-03-23T14:09:57.572Z,39.34
2019-03-23T14:13:16.284Z,38.76
2019-03-23T14:16:25.891Z,38.38
2019-03-23T14:19:06.501Z,38.95
2019-03-23T14:21:41.407Z,37.73
2019-03-23T14:24:12.753Z,37.70
2019-03-23T14:26:44.403Z,36.83
2019-03-23T14:29:17.444Z,36.65
2019-03-23T14:31:49.040Z,37.58
2019-03-23T14:34:21.421Z,37.45
2019-03-23T14:37:36.791Z,37.59
2019-03-23T14:40:55.011Z,37.37
2019-03-23T14:43:34.312Z,37.19
2019-03-23T14:46:17.383Z,37.10
2019-03-23T14:48:48.846Z,36.25
2019-03-23T14:51:23.259Z,36.81
2019-03-23T14:53:54.990Z,36.94
2019-03-23T14:56:31.727Z,37.05
2019-03-23T14:59:07.482Z,36.45
2019-03-23T15:01:44.211Z,36.79
2019-03-23T15:04:21.637Z,36.77
2019-03-23T15:06:56.532Z,35.06
2019-03-23T15:09:31.099Z,35.85
2019-03-23T15:12:03.395Z,34.96
2019-03-23T15:14:35.155Z,35.19
2019-03-23T15:17:08.288Z,35.00
2019-03-23T15:19:41.411Z,34.96
2019-03-23T15:22:17.423Z,34.70
2019-03-23T15:24:49.348Z,34.91
2019-03-23T15:27:21.401Z,34.11
2019-03-23T15:29:54.844Z,34.18
2019-03-23T15:32:26.426Z,35.52
2019-03-23T15:34:58.125Z,34.64
2019-03-23T15:37:30.085Z,34.49
2019-03-23T15:40:02.916Z,33.89
2019-03-23T15:42:38.105Z,41.28
2019-03-23T15:45:17.094Z,44.50
2019-03-23T15:47:49.790Z,46.14
2019-03-23T15:50:23.071Z,47.26
2019-03-23T15:52:54.577Z,48.42
2019-03-23T15:55:33.197Z,49.28
2019-03-23T15:58:06.980Z,50.04
2019-03-23T16:00:41.072Z,49.97
2019-03-23T16:03:18.047Z,50.80
2019-03-23T16:05:50.033Z,51.37
2019-03-23T16:08:21.496Z,51.93
2019-03-23T16:10:55.928Z,51.92
2019-03-23T16:13:36.930Z,52.97
2019-03-23T16:16:11.052Z,52.82
2019-03-23T16:18:47.497Z,53.92
2019-03-23T16:21:19.201Z,55.34
2019-03-23T16:23:50.927Z,59.45
2019-03-23T16:26:31.343Z,61.92
2019-03-23T16:29:09.543Z,63.17
2019-03-23T16:31:41.233Z,66.31
2019-03-23T16:34:15.742Z,69.67
2019-03-23T16:36:48.239Z,72.36
2019-03-23T16:39:19.602Z,75.40
2019-03-23T16:41:57.504Z,75.96
2019-03-23T16:44:29.684Z,78.97
2019-03-23T16:47:37.086Z,80.32
2019-03-23T16:53:31.595Z,79.37
2019-03-23T16:56:03.437Z,79.20
2019-03-23T16:58:36.609Z,81.07
2019-03-23T17:01:08.222Z,81.35
2019-03-23T17:03:44.145Z,82.00
2019-03-23T17:06:15.536Z,82.48
2019-03-23T17:08:47.336Z,81.97
2019-03-23T17:11:18.945Z,83.16
2019-03-23T17:13:52.586Z,82.95
2019-03-23T17:16:37.985Z,83.67
2019-03-23T17:19:12.904Z,83.67
2019-03-23T17:21:49.830Z,84.59
2019-03-23T17:24:21.385Z,84.02
2019-03-23T17:26:52.765Z,83.02
2019-03-23T17:29:24.191Z,83.75
2019-03-23T17:31:57.066Z,82.74
2019-03-23T17:34:30.276Z,84.22
2019-03-23T17:37:02.049Z,83.72
2019-03-23T17:39:34.816Z,84.45
2019-03-23T17:42:06.493Z,82.36
2019-03-23T17:44:39.562Z,83.25
2019-03-23T17:47:11.528Z,81.90
2019-03-23T17:49:43.268Z,82.25
2019-03-23T17:52:15.261Z,82.24
2019-03-23T17:54:46.643Z,81.44
2019-03-23T17:57:18.493Z,81.42
2019-03-23T17:59:50.251Z,81.55
2019-03-23T18:02:26.198Z,81.98
2019-03-23T18:04:57.812Z,82.62
2019-03-23T18:07:29.370Z,81.62
2019-03-23T18:10:06.451Z,82.26
2019-03-23T18:12:39.897Z,83.11
2019-03-23T18:15:13.916Z,83.46
2019-03-23T18:17:46.056Z,83.22
2019-03-23T18:20:17.402Z,82.38
2019-03-23T18:22:51.487Z,81.98
2019-03-23T18:25:23.333Z,83.18
2019-03-23T18:27:55.031Z,83.65
2019-03-23T18:30:45.167Z,84.78
2019-03-23T18:33:19.913Z,83.71
2019-03-23T18:35:52.844Z,84.08
2019-03-23T18:38:29.239Z,84.66
2019-03-23T18:41:01.595Z,84.90
2019-03-23T18:43:44.392Z,85.86
2019-03-23T18:46:15.981Z,86.20
2019-03-23T18:48:49.351Z,86.56
2019-03-23T18:51:20.853Z,85.01
2019-03-23T18:53:59.754Z,84.88
2019-03-23T18:56:34.883Z,84.38
2019-03-23T18:59:11.422Z,84.54
2019-03-23T19:01:55.419Z,84.50
2019-03-23T19:04:35.267Z,84.69
2019-03-23T19:07:06.673Z,84.87
2019-03-23T19:09:43.866Z,85.35
2019-03-23T19:12:21.327Z,85.24
2019-03-23T19:15:01.195Z,86.04
2019-03-23T19:17:32.213Z,86.64
2019-03-23T19:20:04.550Z,87.37
2019-03-23T19:22:44.338Z,88.15
2019-03-23T19:25:19.494Z,88.59
2019-03-23T19:27:51.447Z,88.81
2019-03-23T19:30:28.118Z,88.93
2019-03-23T19:33:00.621Z,89.90
2019-03-23T19:35:36.172Z,90.30
2019-03-23T19:38:23.476Z,90.83
2019-03-23T19:41:01.755Z,91.53
2019-03-23T19:43:48.925Z,91.83
2019-03-23T19:46:20.180Z,91.49
2019-03-23T19:48:54.852Z,91.50
2019-03-23T19:51:26.557Z,91.73
2019-03-23T19:53:58.818Z,92.35
2019-03-23T19:56:42.752Z,92.11
2019-03-23T19:59:22.298Z,92.98
2019-03-23T20:01:57.312Z,93.08
2019-03-23T20:04:28.700Z,92.51
2019-03-23T20:07:06.316Z,92.11
2019-03-23T20:09:41.746Z,93.08
2019-03-23T20:12:15.038Z,94.04
2019-03-23T20:14:49.493Z,93.05
2019-03-23T20:17:24.465Z,94.00
2019-03-23T20:19:57.568Z,93.78
2019-03-23T20:22:29.178Z,94.78
2019-03-23T20:25:04.142Z,94.86
2019-03-23T20:27:35.841Z,95.50
2019-03-23T20:30:08.729Z,95.20
2019-03-23T20:32:46.533Z,94.62
2019-03-23T20:35:19.007Z,94.41
2019-03-23T20:37:53.455Z,93.64
2019-03-23T20:40:26.713Z,94.14
2019-03-23T20:43:07.533Z,94.65
2019-03-23T20:45:41.477Z,95.24
2019-03-23T20:48:15.736Z,95.88
2019-03-23T20:50:50.007Z,96.22
2019-03-23T20:53:23.670Z,96.24
2019-03-23T20:55:56.621Z,96.31
2019-03-23T20:58:29.797Z,96.38
2019-03-23T21:01:12.734Z,96.07
2019-03-23T21:03:53.901Z,96.62
2019-03-23T21:06:27.556Z,97.14
2019-03-23T21:08:59.221Z,98.38
2019-03-23T21:11:32.412Z,98.75
2019-03-23T21:14:04.162Z,98.75
2019-03-23T21:16:46.701Z,98.99
2019-03-23T21:19:18.074Z,98.62
2019-03-23T21:21:51.271Z,98.59
2019-03-23T21:24:24.370Z,99.15
2019-03-23T21:26:56.979Z,99.28
2019-03-23T21:29:28.662Z,99.18
2019-03-23T21:32:03.247Z,99.33
2019-03-23T21:34:41.525Z,99.89
2019-03-23T21:37:20.013Z,100.00
2019-03-23T21:39:57.417Z,100.00
2019-03-23T21:42:29.363Z,100.00
2019-03-23T21:45:05.101Z,100.00
2019-03-23T21:47:58.845Z,100.00
2019-03-23T21:54:26.596Z,100.00
2019-03-23T21:56:59.195Z,100.00
2019-03-23T21:59:33.895Z,100.00
2019-03-23T22:02:05.238Z,100.00
2019-03-23T22:04:39.239Z,100.00
2019-03-23T22:07:13.657Z,100.00
2019-03-23T22:09:57.684Z,100.00
2019-03-23T22:12:36.239Z,100.00
2019-03-23T22:15:10.555Z,100.00
2019-03-23T22:17:42.254Z,100.00
2019-03-23T22:20:14.624Z,100.00
2019-03-23T22:22:46.137Z,100.00
2019-03-23T22:25:22.278Z,100.00
2019-03-23T22:27:58.039Z,100.00
2019-03-23T22:30:31.163Z,100.00
2019-03-23T22:33:03.213Z,100.00
2019-03-23T22:35:34.640Z,100.00
2019-03-23T22:38:09.615Z,100.00
2019-03-23T22:40:42.520Z,100.00
2019-03-23T22:43:18.125Z,100.00
2019-03-23T22:45:51.772Z,100.00
2019-03-23T22:48:24.532Z,100.00
2019-03-23T22:50:59.446Z,100.00
2019-03-23T22:53:31.049Z,100.00
2019-03-23T22:56:04.417Z,100.00
2019-03-23T22:58:38.839Z,100.00
2019-03-23T23:01:10.404Z,100.00
2019-03-23T23:03:42.070Z,100.00
2019-03-23T23:06:14.499Z,100.00
2019-03-23T23:08:45.886Z,100.00
2019-03-23T23:11:17.286Z,100.00
2019-03-23T23:13:48.699Z,100.00
2019-03-23T23:16:20.114Z,100.00
2019-03-23T23:18:51.458Z,100.00
2019-03-23T23:21:22.963Z,100.00
2019-03-23T23:23:54.379Z,100.00
2019-03-23T23:26:27.806Z,100.00
2019-03-23T23:29:02.748Z,100.00
2019-03-23T23:31:34.113Z,100.00
2019-03-23T23:34:06.788Z,100.00
2019-03-23T23:36:39.567Z,100.00
2019-03-23T23:39:13.233Z,100.00
2019-03-23T23:41:47.682Z,100.00
2019-03-23T23:44:22.532Z,100.00
2019-03-23T23:46:55.299Z,100.00
2019-03-23T23:49:26.957Z,100.00
2019-03-23T23:51:59.577Z,100.00
2019-03-23T23:54:31.347Z,100.00
2019-03-23T23:57:05.951Z,100.00
2019-03-23T23:59:37.248Z,100.00
